Terminal Aerodrome Forecast
Issued by NWS

Current Version | Previous Version | Text Only | Print | Product List | Glossary On
Versions: 1 2 3 4 5 6 7 8 9 10 11 12 13 14 15 16 17
000
FTUS42 KFFC 092300
TAFPDK
TAF
KPDK 092334Z 1000/1024 30006KT P6SM VCSH SCT050 BKN150
     FM100600 27003KT P6SM BKN025
     FM101400 28003KT P6SM BKN045 PROB30 1015/1021 -TSRA BKN040CB
     FM102200 28003KT P6SM VCSH SCT045 BKN250=

USA.gov is the U.S. government's official web portal to all federal, state and local government web resources and services.